Airfield :
LOGIN :

Register | Disclaimer

   EN    FR    IT 

 










Legend :    VFR   Marginal VFR   IFR   Intensive IFR   Very Intensive IFR
Visi :
Ceiling :
>= 8 km
>= 3000ft
5 to 8 km
1000 to 3000 ft
1500m to 5 km
500 to 1000 ft
800 to 1500m
200 to 500 ft
< 800m
< 200 ft
Symbols :   Thunderstorms  Fog  Heavy snow  Heavy precipitations  Wind > 20 kt
SIGMETs :     Misc.  Thunderstorms  Icing  Turbulence  Mountain Waves  Volcanic Ashes






- Airport Elevation : 1411 ft
- IATA code : SZG


LOWS - Salzburg

CURRENT METAR :
  • 191550Z 20003KT 140V250 9999 FEW006 SCT024 BKN030 00/M00 Q1036 R15/290195 NOSIG

EXPIRED METARs :
  • 191520Z 17004KT 110V220 9999 FEW002 SCT024 BKN030 00/00 Q1035 R15/290195 NOSIG
  • 191450Z 17003KT 130V230 9999 FEW002 SCT028 BKN042 00/M00 Q1035 R15/290195 NOSIG
  • 191420Z VRB02KT 9999 FEW002 SCT024 BKN044 00/M00 Q1034 R15/290195 NOSIG
  • 191350Z VRB02KT 2400 -SHSN SCT003 BKN014 00/M00 Q1034 R15/290195 BECMG 9999 FEW008 BKN040
  • 191320Z 16003KT 040V210 2500 -SHSN BR SCT004 BKN016 01/M01 Q1034 R15/290195 TEMPO 1200 SHSN BKN014

TAF AMD TAF LOWS
Valid from the 19 at 12:00 until the 20 at 12:00 UTC


191231Z 1912/2012 30006KT 9999 SCT020 BKN040 TX02/1913Z TNM02/2007Z
TEMPO 1912/2008 4000 -SHSN SCT008 BKN012
PROB30
TEMPO 1912/1914 1200 TSSN BKN012 FEW025CB
BECMG 1918/1920 15004KT



MET'MAP, your aeronautical weather chart ! - Copyright ORBIFLY December 2007 - Disclaimer

ORBIFLY MET'MAP TEAM :

Programming & Development : Alexandra Zaïnal
Concept & original design : Baudouin d'Aumeries
Assistance for programming : Marc-Olivier Méhu
Technical & hardware support : Manuel Goepfert

Contact : metmap@orbifly.com




SOURCES & CREDITS :

   NOAA